You are not logged in, Click here to log in
ICAO: NSFA Country: 薩摩亞首都阿皮亞以西40公里
Latitude: -13.83 Longitude: -172.008
Total Arrivals: 1 Total Departures: 0
Latest Arrival: GC6 (NZAA-NSFA)KE. CHIH-HAO Latest Departure: (-).
Scenery:
METAR : NSFA 261100Z 00000KT 9999 FEW028 25/23 Q1012 NOSIG

法萊奧洛國際機場APW